Terminal Aerodrome Forecast
Issued by NWS Knoxville/Tri Cities, TN

Home | Current Version | Previous Version | Text Only | Print | Product List | Glossary On
Versions: 1 2 3 4 5 6 7 8 9 10 11 12 13 14 15 16 17 18 19 20 21 22 23 24 25 26
000
FTUS44 KMRX 301739
TAFTYS
TAF
KTYS 301739Z 3018/3118 22006KT P6SM SCT050 BKN120
     FM302300 23007KT P6SM VCTS BKN050CB
     FM310500 VRB03KT P6SM SCT060 BKN150
     FM310900 00000KT 5SM BR SCT150 BKN250
     FM311300 23004KT P6SM SCT035 BKN120=

USA.gov is the U.S. government's official web portal to all federal, state and local government web resources and services.